Time;durP1;ratioP1;P1;durP2;ratioP2;P2;SDS_P1;SDS_P2;PMS_P1;PMS_P2;Temp;Humidity;BMP_temperature;BMP_pressure;BME280_temperature;BME280_humidity;BME280_pressure;Samples;Min_cycle;Max_cycle;Signal;HPM_P1;HPM_P2
2023/04/14 00:00:32;;;;;;;;;;;5.00;99.90;;;;;;4990751;28;206411;-71
2023/04/14 00:02:58;;;;;;;;;;;5.00;99.90;;;;;;5063984;28;19928;-72
2023/04/14 00:05:27;;;;;;;;;;;4.90;99.90;;;;;;5014164;28;210086;-72
2023/04/14 00:07:53;;;;;;;;;;;4.90;99.90;;;;;;5065631;28;19920;-73
2023/04/14 00:10:19;;;;;;;;;;;4.90;99.90;;;;;;5013985;28;215384;-73
2023/04/14 00:12:45;;;;;;;;;;;4.90;99.90;;;;;;5053765;28;19981;-73
2023/04/14 00:15:11;;;;;;;;;;;4.90;99.90;;;;;;5014641;28;209950;-71
2023/04/14 00:17:36;;;;;;;;;;;4.90;99.90;;;;;;5078834;28;19921;-72
2023/04/14 00:20:03;;;;;;;;;;;4.90;99.90;;;;;;5029154;28;210260;-71
2023/04/14 00:22:29;;;;;;;;;;;5.00;99.90;;;;;;5041817;28;19921;-73
2023/04/14 00:24:55;;;;;;;;;;;5.00;99.90;;;;;;5068140;28;20008;-71
2023/04/14 00:27:20;;;;;;;;;;;5.00;99.90;;;;;;5011478;28;224561;-72
2023/04/14 00:29:46;;;;;;;;;;;5.10;99.90;;;;;;5071415;28;20303;-73
2023/04/14 00:32:12;;;;;;;;;;;5.20;99.90;;;;;;5021578;28;187491;-72
2023/04/14 00:34:38;;;;;;;;;;;5.20;99.90;;;;;;5067342;28;20312;-72
2023/04/14 00:37:04;;;;;;;;;;;5.20;99.90;;;;;;4999952;28;215653;-72
2023/04/14 00:39:30;;;;;;;;;;;5.30;99.90;;;;;;5069073;28;20285;-72
2023/04/14 00:41:56;;;;;;;;;;;5.30;99.90;;;;;;5035909;28;206200;-72
2023/04/14 00:44:24;;;;;;;;;;;5.30;99.90;;;;;;5067902;28;19934;-71
2023/04/14 00:46:50;;;;;;;;;;;5.30;99.90;;;;;;5010847;28;220047;-71
2023/04/14 00:49:16;;;;;;;;;;;5.40;99.90;;;;;;5061335;28;20583;-71
2023/04/14 00:51:44;;;;;;;;;;;5.40;99.90;;;;;;5025437;27;215409;-72
2023/04/14 00:54:10;;;;;;;;;;;5.40;99.90;;;;;;5074015;28;19929;-71
2023/04/14 00:56:37;;;;;;;;;;;5.40;99.90;;;;;;5019589;28;134669;-71
2023/04/14 00:59:05;;;;;;;;;;;5.30;99.90;;;;;;5069685;28;19921;-71
2023/04/14 01:01:33;;;;;;;;;;;5.30;99.90;;;;;;5006999;28;207761;-72
2023/04/14 01:04:01;;;;;;;;;;;5.30;99.90;;;;;;5062270;28;19999;-71
2023/04/14 01:06:27;;;;;;;;;;;5.30;99.90;;;;;;5006347;28;205132;-72
2023/04/14 01:08:53;;;;;;;;;;;5.30;99.90;;;;;;5070808;28;20541;-71
2023/04/14 01:11:28;;;;;;;;;;;5.20;99.90;;;;;;5012017;28;206343;-71
2023/04/14 01:14:03;;;;;;;;;;;5.20;99.90;;;;;;5067108;28;19928;-72
2023/04/14 01:16:31;;;;;;;;;;;5.20;99.90;;;;;;5008505;28;210172;-72
2023/04/14 01:19:05;;;;;;;;;;;5.20;99.90;;;;;;5062987;28;19951;-72
2023/04/14 01:21:36;;;;;;;;;;;5.30;99.90;;;;;;5003012;28;208590;-71
2023/04/14 01:24:21;;;;;;;;;;;5.30;99.90;;;;;;5047936;28;19931;-71
2023/04/14 01:26:51;;;;;;;;;;;5.30;99.90;;;;;;5014551;28;173275;-72
2023/04/14 01:29:17;;;;;;;;;;;5.30;99.90;;;;;;5066066;28;19924;-71
2023/04/14 01:31:45;;;;;;;;;;;5.20;99.90;;;;;;5015513;28;219099;-70
2023/04/14 01:34:30;;;;;;;;;;;5.20;99.90;;;;;;5064611;28;19927;-72
2023/04/14 01:36:57;;;;;;;;;;;5.20;99.90;;;;;;5001167;28;212586;-71
2023/04/14 01:39:25;;;;;;;;;;;5.10;99.90;;;;;;5065542;28;20573;-72
2023/04/14 01:41:53;;;;;;;;;;;5.00;99.90;;;;;;5013604;28;208681;-71
2023/04/14 01:44:21;;;;;;;;;;;5.00;99.90;;;;;;5065547;28;19920;-72
2023/04/14 01:46:48;;;;;;;;;;;5.00;99.90;;;;;;5011168;28;172478;-71
2023/04/14 01:49:15;;;;;;;;;;;4.90;99.90;;;;;;5064069;28;19921;-72
2023/04/14 01:51:42;;;;;;;;;;;4.80;99.90;;;;;;5024418;28;207766;-72
2023/04/14 01:54:08;;;;;;;;;;;4.70;99.90;;;;;;5067056;28;19947;-72
2023/04/14 01:56:36;;;;;;;;;;;4.70;99.90;;;;;;5022862;28;209380;-71
2023/04/14 01:59:02;;;;;;;;;;;4.60;99.90;;;;;;5078255;28;19920;-72
2023/04/14 02:01:29;;;;;;;;;;;4.50;99.90;;;;;;5003338;28;210331;-72
2023/04/14 02:03:55;;;;;;;;;;;4.40;99.90;;;;;;5070114;28;19932;-72
2023/04/14 02:06:21;;;;;;;;;;;4.40;99.90;;;;;;5018967;28;209020;-72
2023/04/14 02:08:48;;;;;;;;;;;4.20;99.90;;;;;;5063444;28;19924;-71
2023/04/14 02:11:15;;;;;;;;;;;4.20;99.90;;;;;;5000207;28;218517;-71
2023/04/14 02:13:42;;;;;;;;;;;4.20;99.90;;;;;;5058140;28;19921;-71
2023/04/14 02:16:09;;;;;;;;;;;4.20;99.90;;;;;;5007281;28;209981;-71
2023/04/14 02:18:36;;;;;;;;;;;4.10;99.90;;;;;;5059840;28;19927;-70
2023/04/14 02:21:02;;;;;;;;;;;4.10;99.90;;;;;;5011384;28;212891;-71
2023/04/14 02:23:30;;;;;;;;;;;4.00;99.90;;;;;;5070338;28;19925;-72
2023/04/14 02:26:00;;;;;;;;;;;3.90;99.90;;;;;;5010418;28;213943;-71
2023/04/14 02:28:28;;;;;;;;;;;3.90;99.90;;;;;;5064048;28;20349;-71
2023/04/14 02:30:55;;;;;;;;;;;3.90;99.90;;;;;;5006108;28;207674;-70
2023/04/14 02:33:22;;;;;;;;;;;3.90;99.90;;;;;;5058988;28;20412;-71
2023/04/14 02:35:54;;;;;;;;;;;3.80;99.90;;;;;;4999074;28;206610;-71
2023/04/14 02:38:31;;;;;;;;;;;3.80;99.90;;;;;;5065511;28;19961;-71
2023/04/14 02:40:59;;;;;;;;;;;3.80;99.90;;;;;;5003090;28;255857;-71
2023/04/14 02:43:32;;;;;;;;;;;3.80;99.90;;;;;;5061663;28;19925;-71
2023/04/14 02:45:59;;;;;;;;;;;3.80;99.90;;;;;;5012052;28;208145;-71
2023/04/14 02:48:26;;;;;;;;;;;3.80;99.90;;;;;;5064230;28;20635;-70
2023/04/14 02:50:53;;;;;;;;;;;3.80;99.90;;;;;;5016908;28;197757;-70
2023/04/14 02:53:21;;;;;;;;;;;3.70;99.90;;;;;;5044663;28;20627;-70
2023/04/14 02:55:49;;;;;;;;;;;3.70;99.90;;;;;;5007254;28;209410;-69
2023/04/14 02:58:15;;;;;;;;;;;3.70;99.90;;;;;;5061428;28;20300;-71
2023/04/14 03:00:42;;;;;;;;;;;3.70;99.90;;;;;;4989987;28;207060;-70
2023/04/14 03:03:08;;;;;;;;;;;3.70;99.90;;;;;;5045569;28;19936;-70
2023/04/14 03:05:35;;;;;;;;;;;3.60;99.90;;;;;;5007061;28;209404;-70
2023/04/14 03:08:02;;;;;;;;;;;3.60;99.90;;;;;;5049382;28;19925;-71
2023/04/14 03:10:28;;;;;;;;;;;3.50;99.90;;;;;;5010964;28;215462;-70
2023/04/14 03:12:54;;;;;;;;;;;3.50;99.90;;;;;;5071574;28;20320;-69
2023/04/14 03:15:21;;;;;;;;;;;3.40;99.90;;;;;;5011109;28;209830;-70
2023/04/14 03:17:52;;;;;;;;;;;3.40;99.90;;;;;;5042324;28;20381;-69
2023/04/14 03:20:20;;;;;;;;;;;3.40;99.90;;;;;;5021424;28;220120;-69
2023/04/14 03:22:48;;;;;;;;;;;3.30;99.90;;;;;;5061141;28;20312;-70
2023/04/14 03:25:14;;;;;;;;;;;3.30;99.90;;;;;;5011488;28;207993;-69
2023/04/14 03:27:42;;;;;;;;;;;3.20;99.90;;;;;;5061972;28;19928;-69
2023/04/14 03:30:09;;;;;;;;;;;3.20;99.90;;;;;;5014707;28;209884;-70
2023/04/14 03:32:40;;;;;;;;;;;3.20;99.90;;;;;;5046587;28;19939;-70
2023/04/14 03:35:07;;;;;;;;;;;3.20;99.90;;;;;;5012673;28;211034;-70
2023/04/14 03:37:35;;;;;;;;;;;3.20;99.90;;;;;;5063974;28;19932;-70
2023/04/14 03:40:04;;;;;;;;;;;3.20;99.90;;;;;;5034035;28;207715;-69
2023/04/14 03:42:31;;;;;;;;;;;3.10;99.90;;;;;;5024918;28;20401;-70
2023/04/14 03:44:57;;;;;;;;;;;3.10;99.90;;;;;;5060079;28;19928;-69
2023/04/14 03:47:25;;;;;;;;;;;3.10;99.90;;;;;;4984322;28;207772;-69
2023/04/14 03:49:55;;;;;;;;;;;3.10;99.90;;;;;;5063391;28;20407;-69
2023/04/14 03:52:22;;;;;;;;;;;3.10;99.90;;;;;;5030586;28;70454;-69
2023/04/14 03:54:50;;;;;;;;;;;3.10;99.90;;;;;;5060962;28;19944;-70
2023/04/14 03:57:17;;;;;;;;;;;3.10;99.90;;;;;;5014502;28;207316;-70
2023/04/14 03:59:43;;;;;;;;;;;3.10;99.90;;;;;;5070422;28;19924;-69
2023/04/14 04:02:10;;;;;;;;;;;3.10;99.90;;;;;;5001857;28;216002;-69
2023/04/14 04:04:36;;;;;;;;;;;3.10;99.90;;;;;;5067237;28;19927;-70
2023/04/14 04:07:03;;;;;;;;;;;3.10;99.90;;;;;;4998527;28;210339;-69
2023/04/14 04:09:30;;;;;;;;;;;3.20;99.90;;;;;;5064338;28;19924;-70
2023/04/14 04:11:57;;;;;;;;;;;3.20;99.90;;;;;;4999785;28;218304;-71
2023/04/14 04:14:23;;;;;;;;;;;3.30;99.90;;;;;;5061741;28;19932;-71
2023/04/14 04:16:50;;;;;;;;;;;3.30;99.90;;;;;;5007585;28;209845;-70
2023/04/14 04:19:25;;;;;;;;;;;3.40;99.90;;;;;;5063373;28;19931;-71
2023/04/14 04:21:52;;;;;;;;;;;3.40;99.90;;;;;;5009009;28;129197;-71
2023/04/14 04:24:20;;;;;;;;;;;3.50;99.90;;;;;;5061542;28;19928;-69
2023/04/14 04:26:47;;;;;;;;;;;3.50;99.90;;;;;;5018899;28;217010;-70
2023/04/14 04:29:13;;;;;;;;;;;3.60;99.90;;;;;;5064867;28;19931;-69
2023/04/14 04:31:39;;;;;;;;;;;3.60;99.90;;;;;;5007369;28;209102;-70
2023/04/14 04:34:06;;;;;;;;;;;3.60;99.90;;;;;;5063382;28;19927;-70
2023/04/14 04:36:32;;;;;;;;;;;3.60;99.90;;;;;;5005877;28;209767;-69
2023/04/14 04:38:58;;;;;;;;;;;3.60;99.90;;;;;;5062693;28;19920;-70
2023/04/14 04:41:26;;;;;;;;;;;3.60;99.90;;;;;;5016283;28;207498;-72
2023/04/14 04:43:52;;;;;;;;;;;3.60;99.90;;;;;;5066131;28;19933;-69
2023/04/14 04:46:36;;;;;;;;;;;3.70;99.90;;;;;;5021969;28;204418;-70
2023/04/14 04:49:02;;;;;;;;;;;3.70;99.90;;;;;;5070953;28;20312;-71
2023/04/14 04:51:28;;;;;;;;;;;3.70;99.90;;;;;;5003016;28;214429;-69
2023/04/14 04:53:54;;;;;;;;;;;3.70;99.90;;;;;;5063037;28;19933;-70
2023/04/14 04:56:20;;;;;;;;;;;3.70;99.90;;;;;;5020781;28;314396;-71
2023/04/14 04:58:47;;;;;;;;;;;3.70;99.90;;;;;;5071185;28;19931;-71
2023/04/14 05:01:14;;;;;;;;;;;3.70;99.90;;;;;;4995785;28;221947;-70
2023/04/14 05:03:41;;;;;;;;;;;3.70;99.90;;;;;;5068602;28;19932;-70
2023/04/14 05:06:07;;;;;;;;;;;3.60;99.90;;;;;;5024165;28;209399;-70
2023/04/14 05:08:33;;;;;;;;;;;3.60;99.90;;;;;;5072459;28;19993;-69
2023/04/14 05:10:59;;;;;;;;;;;3.60;99.90;;;;;;5006569;28;235734;-69
2023/04/14 05:13:24;;;;;;;;;;;3.60;99.90;;;;;;5060061;28;20269;-71
2023/04/14 05:15:50;;;;;;;;;;;3.60;99.90;;;;;;5021570;28;208423;-71
2023/04/14 05:18:16;;;;;;;;;;;3.60;99.90;;;;;;5064858;28;20806;-71
2023/04/14 05:20:42;;;;;;;;;;;3.70;99.90;;;;;;5010558;28;206666;-72
2023/04/14 05:23:08;;;;;;;;;;;3.70;99.90;;;;;;5057788;28;19928;-71
2023/04/14 05:25:34;;;;;;;;;;;3.80;99.90;;;;;;5010022;28;209215;-72
2023/04/14 05:28:00;;;;;;;;;;;3.90;99.90;;;;;;5052740;28;19935;-70
2023/04/14 05:30:26;;;;;;;;;;;4.00;99.90;;;;;;5010858;28;208172;-70
2023/04/14 05:32:52;;;;;;;;;;;4.10;99.90;;;;;;5061216;28;20406;-72
2023/04/14 05:35:18;;;;;;;;;;;4.20;99.90;;;;;;5012764;28;218753;-71
2023/04/14 05:37:44;;;;;;;;;;;4.30;99.90;;;;;;5046720;28;19928;-72
2023/04/14 05:40:10;;;;;;;;;;;4.70;99.90;;;;;;5012261;28;208715;-72
2023/04/14 05:42:36;;;;;;;;;;;5.20;99.90;;;;;;5073193;28;19939;-72
2023/04/14 05:45:03;;;;;;;;;;;5.60;99.90;;;;;;5034153;28;215082;-71
2023/04/14 05:47:28;;;;;;;;;;;6.00;99.90;;;;;;5024603;28;19924;-72
2023/04/14 05:49:55;;;;;;;;;;;6.40;99.90;;;;;;5065834;28;19924;-70
2023/04/14 05:52:21;;;;;;;;;;;6.70;99.90;;;;;;5026637;28;209601;-72
2023/04/14 05:54:46;;;;;;;;;;;7.10;99.90;;;;;;5059089;28;19944;-71
2023/04/14 05:57:12;;;;;;;;;;;7.50;99.90;;;;;;5017288;28;219210;-72
2023/04/14 05:59:38;;;;;;;;;;;7.80;99.90;;;;;;5057226;28;20407;-73
2023/04/14 06:02:06;;;;;;;;;;;8.10;99.90;;;;;;5015259;28;210826;-72
2023/04/14 06:04:32;;;;;;;;;;;8.50;99.90;;;;;;5059472;28;19954;-72
2023/04/14 06:06:58;;;;;;;;;;;8.80;99.90;;;;;;5019010;28;213584;-73
2023/04/14 06:09:24;;;;;;;;;;;9.20;99.90;;;;;;5063368;28;20075;-73
2023/04/14 06:11:50;;;;;;;;;;;9.50;99.90;;;;;;5032841;28;211910;-72
2023/04/14 06:14:16;;;;;;;;;;;9.80;99.90;;;;;;5066796;28;20508;-74
2023/04/14 06:16:42;;;;;;;;;;;10.00;99.90;;;;;;5021291;28;209498;-73
2023/04/14 06:19:08;;;;;;;;;;;10.30;99.90;;;;;;5073277;28;20378;-74
2023/04/14 06:21:34;;;;;;;;;;;10.50;99.90;;;;;;5007667;28;209202;-73
2023/04/14 06:24:00;;;;;;;;;;;10.60;99.90;;;;;;5062295;28;19972;-73
2023/04/14 06:26:26;;;;;;;;;;;10.80;99.90;;;;;;5023263;28;209861;-74
2023/04/14 06:28:52;;;;;;;;;;;11.00;99.90;;;;;;5060695;28;20413;-73
2023/04/14 06:31:18;;;;;;;;;;;11.30;99.90;;;;;;5009227;28;210130;-73
2023/04/14 06:33:44;;;;;;;;;;;11.60;99.90;;;;;;5064133;28;19936;-73
2023/04/14 06:36:10;;;;;;;;;;;11.80;99.90;;;;;;5012384;28;215910;-74
2023/04/14 06:38:36;;;;;;;;;;;12.10;99.90;;;;;;5045995;28;19928;-74
2023/04/14 06:41:02;;;;;;;;;;;12.30;99.90;;;;;;5008455;28;201963;-74
2023/04/14 06:43:28;;;;;;;;;;;12.50;99.90;;;;;;5064943;28;20449;-74
2023/04/14 06:45:54;;;;;;;;;;;12.30;99.90;;;;;;5016522;28;184844;-73
2023/04/14 06:48:20;;;;;;;;;;;12.30;99.90;;;;;;5050897;28;20385;-74
2023/04/14 06:50:52;;;;;;;;;;;12.30;99.90;;;;;;5010693;28;209041;-74
2023/04/14 06:53:18;;;;;;;;;;;12.20;99.90;;;;;;5063760;28;19939;-73
2023/04/14 06:55:44;;;;;;;;;;;12.10;99.90;;;;;;5007953;28;209269;-74
2023/04/14 06:58:10;;;;;;;;;;;12.10;99.90;;;;;;5063287;28;19928;-73
2023/04/14 07:00:36;;;;;;;;;;;12.10;99.90;;;;;;4983549;28;212451;-69
2023/04/14 07:03:02;;;;;;;;;;;12.10;99.90;;;;;;5040702;28;19928;-74
2023/04/14 07:05:28;;;;;;;;;;;12.30;99.90;;;;;;5012931;28;214507;-73
2023/04/14 07:07:54;;;;;;;;;;;12.40;99.90;;;;;;5045208;28;19996;-73
2023/04/14 07:10:20;;;;;;;;;;;12.60;99.90;;;;;;5009236;28;209634;-73
2023/04/14 07:12:46;;;;;;;;;;;12.70;99.90;;;;;;5056477;28;21296;-72
2023/04/14 07:15:13;;;;;;;;;;;12.70;99.90;;;;;;5009105;28;213428;-73
2023/04/14 07:17:39;;;;;;;;;;;12.70;99.90;;;;;;5060279;28;19932;-73
2023/04/14 07:20:05;;;;;;;;;;;12.80;99.90;;;;;;5025014;28;213565;-71
2023/04/14 07:22:32;;;;;;;;;;;13.20;99.90;;;;;;5067147;28;20394;-72
2023/04/14 07:24:57;;;;;;;;;;;13.60;99.90;;;;;;5054247;28;210406;-72
2023/04/14 07:27:27;;;;;;;;;;;14.00;99.90;;;;;;5019729;28;213811;-73
2023/04/14 07:29:53;;;;;;;;;;;14.30;99.90;;;;;;5057402;28;19925;-74
2023/04/14 07:32:19;;;;;;;;;;;14.50;99.40;;;;;;5019483;28;229346;-73
2023/04/14 07:34:45;;;;;;;;;;;14.10;96.90;;;;;;5060378;28;19935;-73
2023/04/14 07:37:11;;;;;;;;;;;13.80;99.30;;;;;;4990279;28;207304;-73
2023/04/14 07:39:37;;;;;;;;;;;13.80;99.30;;;;;;5060851;28;19932;-73
2023/04/14 07:42:03;;;;;;;;;;;14.00;99.30;;;;;;5005370;28;213115;-73
2023/04/14 07:44:29;;;;;;;;;;;14.10;96.80;;;;;;5059551;28;20281;-72
2023/04/14 07:46:55;;;;;;;;;;;13.70;97.30;;;;;;5011467;28;221847;-73
2023/04/14 07:49:21;;;;;;;;;;;13.80;99.90;;;;;;5061910;28;19925;-72
2023/04/14 07:51:48;;;;;;;;;;;14.30;99.00;;;;;;5014693;28;210437;-72
2023/04/14 07:54:14;;;;;;;;;;;14.40;97.50;;;;;;5060097;28;19928;-74
2023/04/14 07:56:40;;;;;;;;;;;14.60;99.60;;;;;;5016297;28;209654;-73
2023/04/14 07:59:06;;;;;;;;;;;14.90;98.80;;;;;;5064822;28;19958;-72
2023/04/14 08:01:32;;;;;;;;;;;15.10;96.60;;;;;;4994060;28;246139;-73
2023/04/14 08:03:58;;;;;;;;;;;15.40;98.30;;;;;;5064834;28;19924;-73
2023/04/14 08:06:25;;;;;;;;;;;15.60;97.30;;;;;;5011858;28;209305;-72
2023/04/14 08:08:52;;;;;;;;;;;15.70;97.80;;;;;;5064162;28;20506;-73
2023/04/14 08:11:18;;;;;;;;;;;15.80;97.20;;;;;;4991817;28;211417;-73
2023/04/14 08:13:45;;;;;;;;;;;16.10;97.80;;;;;;5055195;28;19951;-72
2023/04/14 08:16:11;;;;;;;;;;;16.40;98.20;;;;;;5014621;28;209984;-72
2023/04/14 08:18:39;;;;;;;;;;;16.60;97.30;;;;;;5060098;28;20305;-72
2023/04/14 08:21:05;;;;;;;;;;;16.90;97.50;;;;;;5003664;28;158173;-72
2023/04/14 08:23:31;;;;;;;;;;;17.20;99.00;;;;;;5057630;28;19931;-72
2023/04/14 08:25:57;;;;;;;;;;;17.60;98.00;;;;;;5008160;28;210299;-73
2023/04/14 08:28:23;;;;;;;;;;;18.00;97.90;;;;;;5069476;28;20261;-72
2023/04/14 08:30:49;;;;;;;;;;;18.10;95.40;;;;;;5012602;28;208619;-74
2023/04/14 08:33:15;;;;;;;;;;;18.20;95.40;;;;;;5059674;28;19935;-73
2023/04/14 08:35:41;;;;;;;;;;;18.40;95.70;;;;;;5008213;28;208709;-73
2023/04/14 08:38:07;;;;;;;;;;;18.50;94.40;;;;;;5057100;28;20321;-73
2023/04/14 08:40:40;;;;;;;;;;;18.80;94.10;;;;;;5011494;28;209482;-73
2023/04/14 08:43:06;;;;;;;;;;;18.10;92.90;;;;;;5073295;28;20260;-72
2023/04/14 08:45:32;;;;;;;;;;;17.40;93.30;;;;;;5014933;28;211990;-73
2023/04/14 08:47:59;;;;;;;;;;;17.20;95.00;;;;;;5075345;28;19953;-72
2023/04/14 08:50:29;;;;;;;;;;;17.60;96.70;;;;;;5009569;28;175919;-73
2023/04/14 08:52:55;;;;;;;;;;;18.40;95.90;;;;;;5073442;28;19932;-72
2023/04/14 08:55:22;;;;;;;;;;;19.00;96.50;;;;;;5013993;28;207264;-74
2023/04/14 08:57:49;;;;;;;;;;;19.50;93.60;;;;;;5069907;28;20042;-74
2023/04/14 09:00:15;;;;;;;;;;;19.60;94.40;;;;;;4992694;28;216105;-73
2023/04/14 09:02:42;;;;;;;;;;;20.00;94.60;;;;;;5058141;28;20316;-73
2023/04/14 09:05:08;;;;;;;;;;;19.90;92.60;;;;;;5003534;28;205622;-73
2023/04/14 09:07:34;;;;;;;;;;;19.40;94.00;;;;;;5077169;28;19932;-74
2023/04/14 09:10:01;;;;;;;;;;;19.70;93.50;;;;;;5042176;28;206696;-73
2023/04/14 09:12:27;;;;;;;;;;;19.90;92.40;;;;;;5052459;28;206703;-73
2023/04/14 09:14:55;;;;;;;;;;;20.50;94.00;;;;;;5063528;28;19940;-72
2023/04/14 09:17:21;;;;;;;;;;;21.10;92.50;;;;;;5020157;28;159039;-73
2023/04/14 09:19:47;;;;;;;;;;;21.10;91.60;;;;;;5063293;28;19920;-73
2023/04/14 09:22:14;;;;;;;;;;;21.10;91.10;;;;;;5015722;28;206091;-73
2023/04/14 09:24:40;;;;;;;;;;;21.50;91.70;;;;;;5073542;28;19925;-73
2023/04/14 09:27:06;;;;;;;;;;;22.00;92.40;;;;;;5029683;28;209292;-73
2023/04/14 09:29:32;;;;;;;;;;;22.30;91.40;;;;;;5065473;28;19927;-73
2023/04/14 09:31:58;;;;;;;;;;;21.60;88.00;;;;;;5011854;28;205260;-74
2023/04/14 09:34:24;;;;;;;;;;;20.90;90.80;;;;;;5082749;28;19924;-73
2023/04/14 09:37:05;;;;;;;;;;;21.40;91.30;;;;;;5012765;28;209539;-73
2023/04/14 09:39:32;;;;;;;;;;;21.50;91.60;;;;;;5080760;28;20312;-73
2023/04/14 09:41:58;;;;;;;;;;;20.30;88.60;;;;;;5002094;28;84744;-72
2023/04/14 09:44:24;;;;;;;;;;;19.20;90.80;;;;;;5028206;28;19968;-73
2023/04/14 09:47:06;;;;;;;;;;;19.80;91.80;;;;;;4998217;28;211726;-73
2023/04/14 09:49:32;;;;;;;;;;;20.90;93.00;;;;;;5028188;28;19925;-73
2023/04/14 09:52:06;;;;;;;;;;;22.20;91.30;;;;;;4990826;28;219220;-73
2023/04/14 09:54:32;;;;;;;;;;;23.20;91.30;;;;;;5047426;28;19936;-74
2023/04/14 09:57:00;;;;;;;;;;;23.70;90.10;;;;;;5017087;28;208794;-72
2023/04/14 09:59:36;;;;;;;;;;;23.00;87.40;;;;;;5046999;28;19927;-73
2023/04/14 10:02:04;;;;;;;;;;;21.00;85.00;;;;;;4997253;28;209198;-74
2023/04/14 10:04:30;;;;;;;;;;;20.00;87.60;;;;;;5063501;28;19932;-73
2023/04/14 10:06:56;;;;;;;;;;;18.80;87.60;;;;;;5004321;28;206844;-73
2023/04/14 10:09:23;;;;;;;;;;;18.50;87.70;;;;;;5048426;28;19928;-73
2023/04/14 10:12:07;;;;;;;;;;;17.70;89.70;;;;;;4991000;28;205758;-73
2023/04/14 10:14:34;;;;;;;;;;;17.60;90.70;;;;;;5067517;28;19927;-72
2023/04/14 10:17:03;;;;;;;;;;;17.30;91.50;;;;;;4996212;28;210665;-72
2023/04/14 10:19:29;;;;;;;;;;;17.20;91.60;;;;;;5068234;28;20500;-72
2023/04/14 10:21:56;;;;;;;;;;;17.10;92.20;;;;;;5014556;28;211234;-72
2023/04/14 10:24:23;;;;;;;;;;;16.90;91.20;;;;;;5066670;28;19928;-73
2023/04/14 10:26:50;;;;;;;;;;;16.70;91.30;;;;;;5012689;28;207931;-73
2023/04/14 10:29:16;;;;;;;;;;;16.50;92.30;;;;;;5062765;28;20544;-71
2023/04/14 10:31:44;;;;;;;;;;;16.50;92.40;;;;;;5001280;28;212456;-72
2023/04/14 10:34:11;;;;;;;;;;;16.40;91.50;;;;;;5060632;28;19920;-72
2023/04/14 10:36:37;;;;;;;;;;;16.30;92.40;;;;;;4992919;28;209663;-72
2023/04/14 10:39:04;;;;;;;;;;;16.30;92.30;;;;;;5038297;28;19955;-72
2023/04/14 10:41:48;;;;;;;;;;;16.40;92.50;;;;;;4990903;28;205432;-72
2023/04/14 10:44:24;;;;;;;;;;;16.30;92.60;;;;;;5061415;28;20302;-72
2023/04/14 10:46:50;;;;;;;;;;;16.00;92.20;;;;;;5022423;28;213478;-72
2023/04/14 10:49:16;;;;;;;;;;;15.70;92.50;;;;;;5058096;28;19928;-72
2023/04/14 10:51:43;;;;;;;;;;;15.60;93.00;;;;;;5016258;28;212422;-72
2023/04/14 10:54:17;;;;;;;;;;;16.00;93.50;;;;;;5060908;28;20301;-69
2023/04/14 10:57:02;;;;;;;;;;;16.90;93.40;;;;;;5002863;28;207425;-70
2023/04/14 10:59:28;;;;;;;;;;;17.10;91.60;;;;;;5060816;28;19943;-71
2023/04/14 11:01:55;;;;;;;;;;;17.70;91.20;;;;;;5009184;28;209424;-71
2023/04/14 11:04:22;;;;;;;;;;;18.10;91.40;;;;;;5056365;28;19929;-71
2023/04/14 11:06:52;;;;;;;;;;;18.80;92.00;;;;;;5012372;28;208348;-71
2023/04/14 11:09:26;;;;;;;;;;;19.30;88.30;;;;;;5060793;28;19920;-70
2023/04/14 11:11:53;;;;;;;;;;;18.60;89.60;;;;;;5001048;28;209042;-70
2023/04/14 11:14:26;;;;;;;;;;;18.40;90.70;;;;;;5063812;28;19928;-70
2023/04/14 11:16:59;;;;;;;;;;;18.60;91.70;;;;;;5017796;28;207112;-70
2023/04/14 11:19:25;;;;;;;;;;;19.50;91.50;;;;;;5055798;28;20337;-70
2023/04/14 11:21:52;;;;;;;;;;;19.80;86.90;;;;;;5017061;28;205859;-71
2023/04/14 11:24:25;;;;;;;;;;;19.50;89.10;;;;;;5058421;28;19921;-70
2023/04/14 11:26:54;;;;;;;;;;;19.50;89.50;;;;;;4992758;28;203344;-69
2023/04/14 11:29:20;;;;;;;;;;;19.70;90.60;;;;;;5062236;28;19921;-70
2023/04/14 11:31:58;;;;;;;;;;;20.40;89.50;;;;;;5019438;28;207046;-70
2023/04/14 11:34:25;;;;;;;;;;;20.20;85.20;;;;;;5065799;28;19931;-70
2023/04/14 11:36:51;;;;;;;;;;;19.50;82.20;;;;;;5017817;28;140974;-69
2023/04/14 11:39:19;;;;;;;;;;;18.90;85.90;;;;;;5055844;28;20439;-69
2023/04/14 11:41:46;;;;;;;;;;;18.70;88.10;;;;;;5014966;28;207266;-70
2023/04/14 11:44:18;;;;;;;;;;;19.10;86.50;;;;;;5057438;28;19924;-70
2023/04/14 11:46:45;;;;;;;;;;;20.00;90.90;;;;;;5013200;28;207886;-70
2023/04/14 11:49:11;;;;;;;;;;;20.80;88.70;;;;;;5061782;28;20273;-70
2023/04/14 11:51:37;;;;;;;;;;;20.80;81.80;;;;;;5021803;28;209218;-69
2023/04/14 11:54:04;;;;;;;;;;;19.50;81.50;;;;;;5066476;28;19928;-70
2023/04/14 11:56:30;;;;;;;;;;;19.70;83.90;;;;;;5001226;28;207562;-70
2023/04/14 11:59:03;;;;;;;;;;;20.00;85.50;;;;;;5065839;28;19936;-70
2023/04/14 12:01:30;;;;;;;;;;;19.90;80.30;;;;;;4999537;28;207543;-70
2023/04/14 12:03:56;;;;;;;;;;;19.80;82.90;;;;;;5058557;28;19924;-70
2023/04/14 12:06:22;;;;;;;;;;;20.60;86.80;;;;;;5019474;28;209390;-70
2023/04/14 12:08:55;;;;;;;;;;;21.30;86.40;;;;;;5067384;28;19929;-69
2023/04/14 12:11:21;;;;;;;;;;;21.50;82.30;;;;;;5007200;28;206314;-70
2023/04/14 12:13:48;;;;;;;;;;;22.00;84.50;;;;;;5062005;28;19993;-70
2023/04/14 12:16:14;;;;;;;;;;;22.80;84.10;;;;;;5018358;28;216996;-70
2023/04/14 12:18:40;;;;;;;;;;;22.50;82.00;;;;;;5066837;28;19925;-71
2023/04/14 12:21:06;;;;;;;;;;;21.90;81.10;;;;;;5020381;28;212180;-70
2023/04/14 12:23:39;;;;;;;;;;;21.60;82.10;;;;;;5072765;28;19951;-69
2023/04/14 12:26:11;;;;;;;;;;;21.80;83.80;;;;;;5011201;28;207723;-69
2023/04/14 12:28:40;;;;;;;;;;;22.10;84.40;;;;;;5067161;28;20441;-71
2023/04/14 12:31:06;;;;;;;;;;;21.90;80.90;;;;;;5008642;28;209151;-71
2023/04/14 12:33:33;;;;;;;;;;;21.70;80.10;;;;;;5067842;28;19925;-70
2023/04/14 12:36:11;;;;;;;;;;;21.40;77.40;;;;;;5008399;28;208017;-70
2023/04/14 12:38:37;;;;;;;;;;;21.30;80.10;;;;;;5063062;28;19929;-71
2023/04/14 12:41:03;;;;;;;;;;;21.30;76.90;;;;;;5005762;28;207640;-70
2023/04/14 12:43:31;;;;;;;;;;;21.10;78.60;;;;;;5064523;28;19920;-69
2023/04/14 12:45:57;;;;;;;;;;;21.10;78.10;;;;;;5000791;28;208796;-70
2023/04/14 12:48:37;;;;;;;;;;;21.40;77.20;;;;;;5052206;28;20308;-71
2023/04/14 12:51:06;;;;;;;;;;;21.80;80.30;;;;;;5010753;28;206846;-71
2023/04/14 12:53:33;;;;;;;;;;;22.70;80.90;;;;;;5060514;28;20404;-71
2023/04/14 12:56:26;;;;;;;;;;;23.60;81.30;;;;;;5008485;28;207210;-70
2023/04/14 12:58:52;;;;;;;;;;;23.70;77.60;;;;;;5062301;28;19932;-70
2023/04/14 13:01:18;;;;;;;;;;;23.40;75.70;;;;;;4988803;28;215440;-70
2023/04/14 13:03:49;;;;;;;;;;;22.50;76.70;;;;;;5066643;28;20686;-71
2023/04/14 13:06:16;;;;;;;;;;;21.70;76.40;;;;;;5013737;28;206992;-70
2023/04/14 13:08:43;;;;;;;;;;;21.60;79.30;;;;;;5067087;28;19959;-70
2023/04/14 13:11:10;;;;;;;;;;;21.30;76.30;;;;;;5019669;28;209725;-71
2023/04/14 13:13:36;;;;;;;;;;;21.40;77.20;;;;;;5067855;28;19939;-70
2023/04/14 13:16:02;;;;;;;;;;;21.10;78.10;;;;;;5013026;28;207508;-70
2023/04/14 13:18:28;;;;;;;;;;;21.30;79.80;;;;;;5063875;28;20320;-70
2023/04/14 13:20:54;;;;;;;;;;;21.70;78.60;;;;;;4999283;28;206768;-70
2023/04/14 13:23:23;;;;;;;;;;;22.30;79.30;;;;;;5056462;28;20357;-71
2023/04/14 13:25:49;;;;;;;;;;;22.80;76.20;;;;;;5009815;28;210883;-70
2023/04/14 13:28:15;;;;;;;;;;;23.50;75.40;;;;;;5060818;28;19951;-71
2023/04/14 13:30:42;;;;;;;;;;;23.90;76.80;;;;;;5012947;28;220065;-71
2023/04/14 13:33:08;;;;;;;;;;;23.90;75.20;;;;;;5072254;28;19925;-70
2023/04/14 13:35:34;;;;;;;;;;;23.80;74.00;;;;;;5006719;28;211061;-70
2023/04/14 13:38:01;;;;;;;;;;;22.90;72.30;;;;;;5064903;28;19931;-70
2023/04/14 13:40:27;;;;;;;;;;;21.80;72.60;;;;;;5006789;28;209422;-70
2023/04/14 13:42:53;;;;;;;;;;;21.30;74.20;;;;;;5063244;28;19943;-69
2023/04/14 13:45:18;;;;;;;;;;;21.40;74.10;;;;;;5017318;28;207366;-71
2023/04/14 13:47:48;;;;;;;;;;;21.60;75.00;;;;;;5078566;28;19985;-70
2023/04/14 13:50:14;;;;;;;;;;;21.80;72.20;;;;;;5009478;28;214642;-70
2023/04/14 13:52:40;;;;;;;;;;;22.10;73.90;;;;;;5047317;28;19924;-70
2023/04/14 13:55:08;;;;;;;;;;;22.50;74.00;;;;;;5012582;28;207843;-71
2023/04/14 13:57:34;;;;;;;;;;;22.80;71.70;;;;;;5065777;28;19935;-71
2023/04/14 14:00:00;;;;;;;;;;;22.70;74.90;;;;;;5049705;28;207638;-72
2023/04/14 14:02:26;;;;;;;;;;;22.80;72.20;;;;;;4982214;28;197157;-70
2023/04/14 14:04:52;;;;;;;;;;;23.20;76.80;;;;;;5065607;28;19936;-72
2023/04/14 14:07:18;;;;;;;;;;;23.70;69.90;;;;;;4989555;28;205552;-71
2023/04/14 14:09:44;;;;;;;;;;;23.30;73.30;;;;;;5066479;28;19924;-73
2023/04/14 14:12:11;;;;;;;;;;;23.30;71.20;;;;;;5023649;28;206530;-72
2023/04/14 14:14:37;;;;;;;;;;;22.80;74.30;;;;;;5065295;28;19940;-71
2023/04/14 14:17:03;;;;;;;;;;;23.30;74.20;;;;;;5010401;28;205871;-70